createdAt,value
2024-01-24T00:07:54.412Z,10.6
2024-01-24T00:38:04.781Z,10.5
2024-01-24T01:08:05.220Z,10.5
2024-01-24T01:38:06.117Z,10.6
2024-01-24T02:08:06.542Z,10.6
2024-01-24T02:38:07.243Z,10.6
2024-01-24T03:08:07.705Z,10.6
2024-01-24T03:38:08.138Z,10.6
2024-01-24T04:08:08.618Z,10.6
2024-01-24T04:38:09.020Z,10.6
2024-01-24T05:08:09.525Z,10.6
2024-01-24T05:38:09.971Z,10.7
2024-01-24T06:08:20.737Z,10.7
2024-01-24T06:38:21.273Z,10.7
2024-01-24T07:08:31.662Z,10.8
2024-01-24T07:38:32.087Z,10.8
2024-01-24T08:08:32.604Z,10.8
2024-01-24T08:38:33.109Z,10.9
2024-01-24T09:08:36.165Z,10.9
2024-01-24T09:38:36.743Z,11
2024-01-24T10:08:40.474Z,11
2024-01-24T10:38:41.079Z,11.1
2024-01-24T11:08:47.361Z,11
2024-01-24T11:38:50.918Z,11.1
2024-01-24T12:08:54.343Z,11.1
2024-01-24T13:09:14.781Z,11.1
2024-01-24T13:39:25.612Z,11.2
2024-01-24T14:09:26.218Z,11
2024-01-24T14:39:37.996Z,11.2
2024-01-24T15:09:38.540Z,11.2
2024-01-24T16:09:58.011Z,11.3
2024-01-24T16:39:59.145Z,11.2
2024-01-24T17:10:00.492Z,11.2
2024-01-24T17:40:02.664Z,11.3
2024-01-24T18:10:03.858Z,11.3
2024-01-24T18:40:04.781Z,11.3
2024-01-24T19:10:15.243Z,11.2
2024-01-24T19:40:16.196Z,11.2
2024-01-24T20:10:27.050Z,11.2
2024-01-24T20:40:27.577Z,11.2
2024-01-24T21:10:28.135Z,11.2
2024-01-24T21:40:28.722Z,11.2
2024-01-24T22:10:29.578Z,11.2
2024-01-24T23:10:49.469Z,11.2
2024-01-24T23:40:49.975Z,11.2
